Terminal Aerodrome Forecast
Issued by NWS

Home | Current Version | Previous Version | Text Only | Print | Product List | Glossary On
Versions: 1 2 3 4 5 6 7 8 9 10 11 12 13 14 15 16 17 18 19 20 21 22 23 24 25
898
FTUS43 KLOT 260300 AAA
TAFDPA
TAF AMD
KDPA 260300Z 2603/2624 VRB03KT P6SM SCT050 BKN150
     FM261300 12008KT P6SM SCT100 BKN150
     FM262000 09012KT P6SM SCT035 BKN060 PROB30 2621/2624 4SM -TSRA
      BKN020 OVC035CB=

USA.gov is the U.S. government's official web portal to all federal, state and local government web resources and services.